Weather at Desoto Heliport

Public forecast

Using degrees Fahrenheit for public forecast. Weather courtesy of forecast.io.

Closest aviation weather report (METAR) to Desoto Heliport

Closest report is Dallas Executive Airport, 3.0 nm (5.6 km) NNW.

2024/07/20 18:53 (retrieved 57 minutes ago)

KRBD 201853Z VRB04KT 10SM CLR 32/17 A3004 RMK AO2 SLP165 T03220167

Closest aviation forecast (TAF) to Desoto Heliport

Closest forecast is Arlington Municipal Airport, 12.2 nm (22.7 km) W.

2024/07/20 18:28 (retrieved 1 hour ago)

TAF KGKY 201725Z 2018/2118 15006KT P6SM SCT050 FM211000 14006KT P6SM VCSH BKN060 FM211700 14007KT P6SM VCTS BKN050CB